Time;durP1;ratioP1;P1;durP2;ratioP2;P2;SDS_P1;SDS_P2;PMS_P1;PMS_P2;Temp;Humidity;BMP_temperature;BMP_pressure;BME280_temperature;BME280_humidity;BME280_pressure;Samples;Min_cycle;Max_cycle;Signal;HPM_P1;HPM_P2
2022/02/11 00:07:08;;;;;;;37.73;21.87;;;6.10;85.50;;;;;;5012127;28;20241;-70
2022/02/11 00:09:39;;;;;;;37.83;21.10;;;6.00;84.90;;;;;;4998888;28;20631;-69
2022/02/11 00:12:07;;;;;;;35.43;21.23;;;5.90;83.50;;;;;;5001004;28;20207;-67
2022/02/11 00:14:43;;;;;;;39.00;20.50;;;5.80;83.70;;;;;;5006426;28;20198;-67
2022/02/11 00:17:13;;;;;;;36.27;22.40;;;5.80;84.00;;;;;;5011719;28;20214;-66
2022/02/11 00:19:40;;;;;;;38.17;21.43;;;5.70;83.70;;;;;;5007924;28;20215;-66
2022/02/11 00:22:08;;;;;;;31.13;20.50;;;5.60;83.40;;;;;;5004720;28;20292;-70
2022/02/11 00:24:35;;;;;;;41.83;20.27;;;5.50;84.00;;;;;;5008374;28;20226;-67
2022/02/11 00:32:40;;;;;;;29.57;20.40;;;5.40;84.70;;;;;;5012164;28;20207;-67
2022/02/11 00:35:26;;;;;;;33.07;20.87;;;5.40;85.30;;;;;;5010864;28;20261;-68
2022/02/11 00:37:54;;;;;;;41.33;23.17;;;5.30;84.60;;;;;;5016689;28;20221;-67
2022/02/11 01:04:39;;;;;;;29.77;19.60;;;5.40;88.50;;;;;;5012841;28;20231;-67
2022/02/11 01:07:08;;;;;;;40.80;21.00;;;5.40;87.80;;;;;;5018510;28;20206;-67
2022/02/11 01:09:36;;;;;;;37.00;23.50;;;5.40;86.50;;;;;;5000476;28;20215;-67
2022/02/11 01:12:05;;;;;;;44.27;24.83;;;5.40;86.10;;;;;;5008368;28;20211;-68
2022/02/11 01:14:37;;;;;;;41.70;25.30;;;5.40;86.40;;;;;;5001252;28;20211;-68
2022/02/11 01:17:27;;;;;;;34.60;23.13;;;5.40;86.80;;;;;;5012615;28;20218;-68
2022/02/11 01:20:08;;;;;;;35.43;20.93;;;5.40;87.50;;;;;;5014781;28;20214;-69
2022/02/11 01:25:42;;;;;;;41.63;24.57;;;5.40;86.70;;;;;;5006493;28;20261;-69
2022/02/11 01:31:17;;;;;;;29.87;20.87;;;5.40;87.00;;;;;;5009542;28;20219;-67
2022/02/11 01:34:00;;;;;;;35.03;19.47;;;5.30;86.70;;;;;;5010383;28;20224;-67
2022/02/11 01:45:06;;;;;;;33.50;21.93;;;5.10;85.00;;;;;;4999173;28;20236;-67
2022/02/11 02:01:06;;;;;;;28.90;20.37;;;4.80;86.10;;;;;;5011148;28;20214;-67
2022/02/11 02:06:37;;;;;;;33.93;22.53;;;4.70;87.10;;;;;;5018402;28;20214;-69
2022/02/11 02:09:55;;;;;;;37.83;22.90;;;4.70;87.50;;;;;;5015776;28;20215;-67
2022/02/11 02:27:55;;;;;;;37.47;22.63;;;4.80;87.70;;;;;;5018584;28;20231;-68
2022/02/11 02:58:09;;;;;;;40.07;24.60;;;4.80;89.10;;;;;;5006958;28;20320;-67
2022/02/11 03:50:30;;;;;;;39.20;24.13;;;4.50;90.70;;;;;;5012044;28;20218;-67
2022/02/11 04:21:08;;;;;;;28.93;21.27;;;5.00;89.90;;;;;;5000413;28;20210;-69
2022/02/11 04:56:41;;;;;;;29.10;21.63;;;5.30;90.20;;;;;;5014172;28;20334;-68
2022/02/11 05:01:54;;;;;;;29.07;19.20;;;5.30;90.20;;;;;;4999595;28;20656;-66
2022/02/11 05:04:21;;;;;;;26.67;19.27;;;5.40;90.20;;;;;;5007790;28;20223;-66
2022/02/11 05:06:48;;;;;;;26.57;18.17;;;5.40;90.10;;;;;;5015759;28;20210;-66
2022/02/11 05:09:15;;;;;;;29.83;18.33;;;5.40;90.10;;;;;;5014461;28;20209;-66
2022/02/11 05:11:42;;;;;;;28.00;18.57;;;5.40;90.00;;;;;;5013431;28;20206;-68
2022/02/11 05:14:09;;;;;;;25.87;18.70;;;5.40;90.00;;;;;;5012926;28;20214;-68
2022/02/11 05:16:36;;;;;;;24.53;17.57;;;5.40;90.00;;;;;;5005259;28;20217;-68
2022/02/11 05:19:04;;;;;;;30.27;18.87;;;5.40;90.00;;;;;;5009015;28;20248;-68
2022/02/11 05:21:31;;;;;;;25.87;18.47;;;5.40;90.10;;;;;;5014805;28;20560;-68
2022/02/11 05:23:58;;;;;;;28.10;18.53;;;5.40;90.10;;;;;;5016551;28;20265;-68
2022/02/11 05:26:25;;;;;;;28.17;20.10;;;5.50;90.10;;;;;;5010884;28;20211;-68
2022/02/11 05:28:52;;;;;;;29.03;19.70;;;5.50;90.10;;;;;;5002975;28;20651;-68
2022/02/11 05:31:19;;;;;;;26.50;19.90;;;5.50;90.10;;;;;;5003372;28;20222;-68
2022/02/11 05:33:47;;;;;;;30.37;20.33;;;5.50;90.10;;;;;;5013334;28;20206;-68
2022/02/11 05:36:15;;;;;;;27.13;19.97;;;5.50;90.20;;;;;;5011787;28;20321;-68
2022/02/11 05:38:43;;;;;;;25.33;19.43;;;5.50;90.30;;;;;;5013848;28;20642;-68
2022/02/11 05:41:11;;;;;;;27.37;20.00;;;5.50;90.60;;;;;;5017881;28;20213;-69
2022/02/11 05:43:40;;;;;;;30.00;21.03;;;5.50;90.40;;;;;;5013153;28;20202;-66
2022/02/11 05:46:09;;;;;;;28.77;18.87;;;5.50;90.40;;;;;;5014563;28;20221;-67
2022/02/11 05:48:39;;;;;;;26.97;17.80;;;5.50;90.40;;;;;;5014462;28;20221;-68
2022/02/11 05:51:07;;;;;;;29.73;19.40;;;5.50;90.30;;;;;;5005197;28;20698;-68
2022/02/11 05:53:34;;;;;;;28.70;18.53;;;5.50;90.30;;;;;;5007757;28;20208;-68
2022/02/11 05:56:02;;;;;;;30.70;19.40;;;5.50;90.30;;;;;;5006097;28;20306;-68
2022/02/11 05:58:29;;;;;;;30.10;18.80;;;5.50;90.30;;;;;;5014591;28;20207;-68
2022/02/11 06:00:56;;;;;;;25.03;18.30;;;5.50;90.30;;;;;;5019808;28;20520;-68
2022/02/11 06:03:23;;;;;;;23.73;18.33;;;5.50;90.30;;;;;;5001281;28;20211;-68
2022/02/11 06:05:50;;;;;;;26.77;18.60;;;5.50;90.30;;;;;;5012208;28;20320;-68
2022/02/11 06:08:19;;;;;;;25.47;17.03;;;5.50;90.30;;;;;;5014566;28;20533;-68
2022/02/11 06:10:47;;;;;;;27.53;17.97;;;5.50;90.30;;;;;;5009039;28;20205;-68
2022/02/11 06:13:15;;;;;;;29.27;18.80;;;5.50;90.40;;;;;;4985796;28;20218;-68
2022/02/11 06:15:46;;;;;;;31.13;19.87;;;5.50;90.40;;;;;;5000079;28;20215;-68
2022/02/11 06:18:13;;;;;;;27.20;17.97;;;5.50;90.50;;;;;;4992606;28;20214;-68
2022/02/11 06:20:40;;;;;;;29.97;19.00;;;5.50;90.50;;;;;;5009775;28;20217;-68
2022/02/11 06:23:08;;;;;;;23.80;16.87;;;5.50;90.60;;;;;;5005712;28;20645;-68
2022/02/11 06:25:35;;;;;;;27.43;18.40;;;5.60;90.70;;;;;;5014795;28;20230;-68
2022/02/11 06:28:02;;;;;;;27.80;18.13;;;5.60;90.70;;;;;;5006814;28;20511;-68
2022/02/11 06:30:30;;;;;;;27.67;17.73;;;5.60;90.70;;;;;;5007162;28;20615;-68
2022/02/11 06:33:00;;;;;;;27.47;16.87;;;5.60;90.80;;;;;;5010691;28;20221;-68
2022/02/11 06:35:31;;;;;;;27.43;18.03;;;5.60;90.80;;;;;;5007044;28;20250;-68
2022/02/11 06:37:59;;;;;;;25.17;17.50;;;5.60;90.70;;;;;;5002404;28;20709;-66
2022/02/11 06:40:31;;;;;;;28.10;18.37;;;5.60;90.70;;;;;;4999856;28;20243;-68
2022/02/11 06:42:58;;;;;;;25.30;16.77;;;5.60;90.60;;;;;;5011113;28;20228;-68
2022/02/11 06:45:26;;;;;;;25.00;16.63;;;5.70;90.60;;;;;;5011863;28;20225;-68
2022/02/11 06:47:53;;;;;;;23.10;16.53;;;5.70;90.60;;;;;;5006984;28;20709;-68
2022/02/11 06:50:21;;;;;;;23.17;16.30;;;5.80;90.60;;;;;;5013136;28;20222;-68
2022/02/11 06:52:55;;;;;;;24.27;15.93;;;5.80;90.60;;;;;;5010552;28;20302;-68
2022/02/11 06:55:25;;;;;;;28.10;18.13;;;5.90;90.60;;;;;;5008226;28;20234;-66
2022/02/11 06:57:52;;;;;;;25.40;16.77;;;5.90;90.50;;;;;;5005471;28;20227;-66
2022/02/11 07:00:20;;;;;;;25.80;17.50;;;6.10;90.50;;;;;;5011042;28;20562;-66
2022/02/11 07:02:48;;;;;;;25.90;16.90;;;6.20;90.20;;;;;;5004174;28;20210;-66
2022/02/11 07:05:16;;;;;;;28.40;18.53;;;6.40;89.90;;;;;;5009246;28;20236;-66
2022/02/11 07:07:43;;;;;;;31.23;17.57;;;6.60;89.20;;;;;;5004406;28;20199;-66
2022/02/11 07:10:11;;;;;;;27.27;17.37;;;6.80;88.30;;;;;;5005422;28;20211;-66
2022/02/11 07:12:38;;;;;;;24.93;17.00;;;7.10;87.10;;;;;;5011400;28;20204;-68
2022/02/11 07:15:06;;;;;;;28.43;17.20;;;7.50;85.60;;;;;;4992385;28;20223;-66
2022/02/11 07:17:33;;;;;;;28.60;18.13;;;7.80;83.40;;;;;;5005990;28;20222;-66
2022/02/11 07:20:01;;;;;;;29.27;17.30;;;8.10;81.80;;;;;;5005473;28;20286;-66
2022/02/11 07:22:34;;;;;;;26.37;16.10;;;8.40;80.40;;;;;;5015957;28;20213;-66
2022/02/11 07:25:04;;;;;;;24.07;16.00;;;8.70;79.60;;;;;;5003824;28;20310;-66
2022/02/11 07:27:31;;;;;;;25.17;16.03;;;8.90;78.70;;;;;;5013117;28;20620;-66
2022/02/11 07:30:20;;;;;;;28.43;15.90;;;9.10;78.10;;;;;;5004483;28;20203;-66
2022/02/11 07:32:48;;;;;;;23.93;14.17;;;9.40;77.50;;;;;;5011072;28;20240;-66
2022/02/11 07:35:15;;;;;;;21.10;14.63;;;9.60;77.00;;;;;;5003849;28;20239;-67
2022/02/11 07:37:42;;;;;;;22.17;13.73;;;9.80;76.30;;;;;;5003752;28;20296;-67
2022/02/11 07:40:10;;;;;;;23.97;14.73;;;9.90;76.10;;;;;;5002299;28;20216;-69
2022/02/11 07:42:39;;;;;;;19.97;13.90;;;10.10;75.80;;;;;;5012800;28;20230;-68
2022/02/11 07:45:06;;;;;;;19.40;15.00;;;10.30;75.40;;;;;;5013611;28;20226;-68
2022/02/11 07:47:33;;;;;;;24.80;15.80;;;10.40;74.70;;;;;;5010656;28;20287;-68
2022/02/11 07:50:00;;;;;;;29.37;17.47;;;10.40;74.20;;;;;;5011997;28;20223;-68
2022/02/11 07:52:27;;;;;;;31.03;16.93;;;10.40;74.00;;;;;;5007364;28;20263;-66
2022/02/11 07:54:54;;;;;;;26.87;16.77;;;10.40;73.20;;;;;;5007400;28;20208;-66
2022/02/11 07:57:23;;;;;;;25.63;16.83;;;10.30;73.40;;;;;;5005338;28;20208;-68
2022/02/11 07:59:52;;;;;;;23.37;15.10;;;10.30;73.70;;;;;;5006871;28;20203;-68
2022/02/11 08:02:19;;;;;;;22.17;15.83;;;10.30;74.40;;;;;;5012857;28;20211;-68
2022/02/11 08:04:46;;;;;;;24.87;13.73;;;10.30;74.80;;;;;;5013257;28;20302;-68
2022/02/11 08:07:13;;;;;;;20.23;13.03;;;10.30;74.90;;;;;;5005131;28;20201;-68
2022/02/11 08:09:41;;;;;;;27.20;13.10;;;10.40;74.80;;;;;;5005539;28;20228;-66
2022/02/11 08:12:08;;;;;;;20.37;12.60;;;10.40;75.10;;;;;;5012035;28;20196;-66
2022/02/11 08:14:35;;;;;;;24.07;12.43;;;10.50;75.20;;;;;;5003281;28;20206;-66
2022/02/11 08:17:02;;;;;;;17.90;10.97;;;10.60;75.20;;;;;;5011395;28;20220;-66
2022/02/11 08:19:29;;;;;;;14.20;10.00;;;10.80;74.70;;;;;;5013056;28;20203;-66
2022/02/11 08:21:57;;;;;;;16.70;9.63;;;10.90;73.80;;;;;;4995644;28;20291;-69
2022/02/11 08:24:24;;;;;;;20.43;8.50;;;11.10;73.00;;;;;;5006662;28;20550;-68
2022/02/11 08:26:51;;;;;;;16.17;7.73;;;11.30;72.00;;;;;;5007843;28;20197;-68
2022/02/11 08:29:25;;;;;;;12.83;7.67;;;11.40;71.50;;;;;;4999350;28;20202;-69
2022/02/11 08:31:55;;;;;;;10.90;6.37;;;11.60;70.60;;;;;;5004319;28;20256;-69
2022/02/11 08:34:23;;;;;;;11.73;6.20;;;11.70;69.50;;;;;;5013048;28;20261;-67
2022/02/11 08:36:50;;;;;;;10.73;6.67;;;11.90;68.40;;;;;;5002397;28;20342;-68
2022/02/11 08:39:18;;;;;;;11.30;6.37;;;12.00;67.80;;;;;;5004561;28;20309;-69
2022/02/11 08:41:45;;;;;;;14.40;7.03;;;12.20;67.00;;;;;;5006666;28;20259;-69
2022/02/11 08:44:12;;;;;;;10.30;7.17;;;12.20;66.50;;;;;;5012291;28;20287;-68
2022/02/11 08:46:39;;;;;;;10.53;6.67;;;12.30;66.00;;;;;;5001130;28;20208;-68
2022/02/11 08:49:06;;;;;;;12.23;6.93;;;12.40;65.90;;;;;;5000205;28;20203;-67
2022/02/11 08:51:34;;;;;;;14.93;6.93;;;12.50;65.80;;;;;;4998259;28;20216;-66
2022/02/11 08:54:01;;;;;;;10.53;5.53;;;12.70;65.60;;;;;;4997674;28;20201;-66
2022/02/11 08:56:29;;;;;;;12.93;6.70;;;12.80;64.50;;;;;;5010872;28;20224;-66
2022/02/11 08:58:57;;;;;;;12.67;7.37;;;12.90;63.70;;;;;;5011621;28;20201;-66
2022/02/11 09:01:24;;;;;;;12.37;7.33;;;13.10;63.10;;;;;;5011334;28;20205;-66
2022/02/11 09:03:51;;;;;;;10.73;6.50;;;13.20;63.00;;;;;;5001183;28;20220;-67
2022/02/11 09:06:19;;;;;;;13.73;7.13;;;13.30;62.40;;;;;;5005620;28;20237;-67
2022/02/11 09:08:50;;;;;;;14.53;6.77;;;13.40;62.40;;;;;;5002889;28;20212;-66
2022/02/11 09:11:21;;;;;;;13.37;7.27;;;13.50;62.20;;;;;;5012487;28;20587;-66
2022/02/11 09:13:50;;;;;;;16.67;6.63;;;13.70;62.10;;;;;;5001480;28;20225;-66
2022/02/11 09:16:21;;;;;;;10.37;5.87;;;13.80;61.30;;;;;;5003239;28;20230;-67
2022/02/11 09:18:49;;;;;;;13.00;6.30;;;13.90;61.10;;;;;;5005272;28;20249;-69
2022/02/11 09:21:16;;;;;;;19.10;8.07;;;14.00;60.60;;;;;;5006705;28;20215;-69
2022/02/11 09:23:43;;;;;;;11.83;7.00;;;14.00;59.70;;;;;;5017222;28;20215;-66
2022/02/11 09:26:15;;;;;;;12.30;7.10;;;14.00;60.00;;;;;;5001396;28;20281;-69
2022/02/11 09:28:42;;;;;;;30.37;12.67;;;14.10;60.00;;;;;;5018451;28;20229;-67
2022/02/11 09:31:11;;;;;;;25.37;10.37;;;14.00;58.70;;;;;;5002834;28;20204;-68
2022/02/11 09:33:39;;;;;;;17.57;9.57;;;13.90;58.70;;;;;;5005098;28;20209;-67
2022/02/11 09:36:07;;;;;;;16.77;7.83;;;13.90;59.40;;;;;;5006309;28;20241;-67
2022/02/11 09:38:34;;;;;;;16.20;7.93;;;13.90;60.20;;;;;;5017880;28;20218;-69
2022/02/11 09:41:01;;;;;;;21.37;7.67;;;13.90;61.00;;;;;;5022280;28;20213;-68
2022/02/11 09:43:32;;;;;;;15.20;6.63;;;14.00;61.00;;;;;;4999973;28;20252;-66
2022/02/11 09:45:59;;;;;;;10.27;5.53;;;14.10;60.80;;;;;;5008963;28;20573;-69
2022/02/11 09:48:25;;;;;;;12.43;6.43;;;14.20;60.80;;;;;;5004171;28;20207;-69
2022/02/11 09:50:55;;;;;;;16.47;7.50;;;14.20;60.80;;;;;;5010083;28;20276;-69
2022/02/11 09:53:29;;;;;;;10.47;6.47;;;14.30;60.00;;;;;;5010449;28;20290;-69
2022/02/11 09:55:57;;;;;;;14.10;6.33;;;14.30;60.50;;;;;;5007811;28;20202;-69
2022/02/11 09:58:24;;;;;;;13.87;6.50;;;14.30;60.70;;;;;;5005036;28;20207;-70
2022/02/11 10:00:52;;;;;;;7.13;4.97;;;14.30;60.00;;;;;;5013630;28;20204;-69
2022/02/11 10:03:25;;;;;;;11.20;5.50;;;14.30;59.90;;;;;;5013793;28;20198;-69
2022/02/11 10:06:02;;;;;;;8.87;5.40;;;14.30;59.10;;;;;;5012534;28;20215;-67
2022/02/11 10:08:32;;;;;;;13.27;5.57;;;14.20;60.00;;;;;;5014026;28;20237;-67
2022/02/11 10:11:01;;;;;;;12.00;5.43;;;14.20;60.60;;;;;;5008417;28;20614;-67
2022/02/11 10:13:31;;;;;;;15.97;6.87;;;14.30;61.60;;;;;;5009926;28;20219;-67
2022/02/11 10:16:08;;;;;;;12.80;6.50;;;14.20;60.70;;;;;;5005177;28;20239;-67
2022/02/11 10:18:42;;;;;;;11.10;6.13;;;14.20;59.80;;;;;;5006435;28;20524;-67
2022/02/11 10:21:12;;;;;;;10.67;6.30;;;14.10;60.20;;;;;;5007780;28;20196;-67
2022/02/11 10:23:42;;;;;;;13.83;6.80;;;14.10;60.40;;;;;;5007248;28;20215;-67
2022/02/11 10:26:13;;;;;;;18.60;6.30;;;14.00;60.40;;;;;;5013699;28;20243;-68
2022/02/11 10:28:41;;;;;;;15.17;5.90;;;14.10;60.50;;;;;;5009074;28;20646;-70
2022/02/11 10:31:25;;;;;;;21.23;6.87;;;14.10;60.90;;;;;;5005826;28;20224;-69
2022/02/11 10:33:52;;;;;;;14.07;6.83;;;14.10;61.60;;;;;;5011763;28;20545;-69
2022/02/11 10:36:25;;;;;;;14.37;6.33;;;14.20;61.80;;;;;;5012715;28;20243;-69
2022/02/11 10:39:19;;;;;;;12.20;5.50;;;14.20;61.40;;;;;;5011256;28;20203;-69
2022/02/11 10:41:52;;;;;;;18.07;6.73;;;14.30;60.90;;;;;;5008020;28;20213;-69
2022/02/11 10:44:22;;;;;;;13.67;5.67;;;14.40;61.20;;;;;;4997606;28;20210;-69
2022/02/11 10:46:58;;;;;;;13.60;5.17;;;14.40;61.40;;;;;;5003071;28;20737;-70
2022/02/11 10:49:33;;;;;;;9.03;4.70;;;14.50;61.60;;;;;;5008646;28;20754;-70
2022/02/11 10:52:20;;;;;;;8.40;5.07;;;14.60;61.40;;;;;;4991240;28;20235;-70
2022/02/11 10:54:49;;;;;;;10.93;5.50;;;14.60;61.30;;;;;;4997303;28;20215;-70
2022/02/11 10:57:23;;;;;;;16.03;7.07;;;14.60;61.40;;;;;;5009290;28;20216;-67
2022/02/11 10:59:50;;;;;;;17.23;7.13;;;14.60;61.10;;;;;;5005689;28;20206;-67
2022/02/11 11:02:19;;;;;;;19.13;5.70;;;14.60;61.00;;;;;;5007477;28;20222;-67
2022/02/11 11:04:49;;;;;;;13.73;5.37;;;14.60;61.40;;;;;;4999487;28;20237;-67
2022/02/11 11:07:23;;;;;;;14.27;6.20;;;14.60;60.90;;;;;;5005558;28;20199;-66
2022/02/11 11:10:14;;;;;;;14.53;6.00;;;14.60;61.00;;;;;;4997378;28;20210;-66
2022/02/11 11:12:48;;;;;;;13.50;6.83;;;14.70;61.60;;;;;;5008542;28;20203;-66
2022/02/11 11:15:18;;;;;;;12.20;6.30;;;14.70;61.70;;;;;;5000467;28;20207;-67
2022/02/11 11:17:49;;;;;;;11.77;6.17;;;14.70;61.30;;;;;;5003034;28;20209;-67
2022/02/11 11:20:20;;;;;;;11.50;6.50;;;14.70;61.70;;;;;;5002165;28;20215;-67
2022/02/11 11:22:54;;;;;;;18.97;6.43;;;14.70;61.90;;;;;;5006233;28;20318;-70
2022/02/11 11:25:21;;;;;;;11.13;6.07;;;14.80;62.20;;;;;;5010881;28;20222;-70
2022/02/11 11:27:52;;;;;;;13.50;6.30;;;14.80;62.50;;;;;;5020352;28;20308;-67
2022/02/11 11:30:31;;;;;;;13.97;7.23;;;14.90;62.60;;;;;;5005400;28;20556;-67
2022/02/11 11:33:04;;;;;;;13.73;6.97;;;14.90;62.70;;;;;;5015433;28;20285;-67
2022/02/11 11:35:45;;;;;;;15.30;7.03;;;15.00;62.40;;;;;;5011693;28;20495;-67
2022/02/11 11:38:16;;;;;;;15.90;7.83;;;15.00;62.60;;;;;;5007293;28;20213;-70
2022/02/11 11:40:55;;;;;;;13.47;6.87;;;15.00;61.90;;;;;;4995370;28;20224;-70
2022/02/11 11:43:34;;;;;;;13.40;5.93;;;15.00;62.60;;;;;;5004084;28;20221;-70
2022/02/11 11:46:16;;;;;;;11.07;6.47;;;15.00;63.20;;;;;;4997248;28;20581;-70
2022/02/11 11:48:56;;;;;;;12.40;4.73;;;15.10;63.60;;;;;;5002536;28;20234;-67
2022/02/11 11:51:24;;;;;;;14.80;4.97;;;15.10;63.30;;;;;;5018965;28;20207;-67
2022/02/11 11:54:21;;;;;;;10.57;5.70;;;15.10;62.50;;;;;;5008521;28;20214;-68
2022/02/11 11:56:54;;;;;;;17.87;7.33;;;15.10;63.10;;;;;;5006222;28;20232;-67
2022/02/11 11:59:28;;;;;;;14.43;7.47;;;15.20;61.90;;;;;;5007837;28;20216;-67
2022/02/11 12:02:11;;;;;;;15.60;7.00;;;15.40;62.60;;;;;;5002648;28;20229;-67
2022/02/11 12:04:41;;;;;;;11.57;6.00;;;15.60;62.70;;;;;;5007429;28;20251;-67
2022/02/11 12:07:13;;;;;;;14.30;4.50;;;15.90;62.50;;;;;;5002620;28;20346;-67
2022/02/11 12:09:44;;;;;;;19.47;5.63;;;16.00;62.10;;;;;;5005757;28;20210;-67
2022/02/11 12:12:12;;;;;;;14.27;4.73;;;16.20;61.50;;;;;;5011020;28;20204;-67
2022/02/11 12:14:41;;;;;;;12.27;4.93;;;16.20;61.10;;;;;;5006406;28;20290;-67
2022/02/11 12:17:10;;;;;;;11.07;5.87;;;16.20;61.10;;;;;;5009819;28;20235;-67
2022/02/11 12:19:39;;;;;;;8.47;4.00;;;16.20;60.90;;;;;;5014129;28;20316;-67
2022/02/11 12:22:07;;;;;;;11.57;4.47;;;16.20;59.60;;;;;;5006425;28;20206;-67
2022/02/11 12:27:30;;;;;;;13.03;4.97;;;16.20;60.20;;;;;;5007836;28;20325;-67
2022/02/11 12:30:04;;;;;;;15.67;5.20;;;16.20;60.70;;;;;;5005868;28;20258;-67
2022/02/11 12:32:33;;;;;;;13.20;4.73;;;16.10;60.20;;;;;;5012106;28;20221;-67
2022/02/11 12:35:04;;;;;;;15.40;5.90;;;16.10;59.70;;;;;;5003391;28;20243;-67
2022/02/11 12:37:32;;;;;;;12.90;5.63;;;16.00;60.30;;;;;;5008762;28;20628;-67
2022/02/11 12:40:15;;;;;;;16.60;4.50;;;16.00;60.70;;;;;;4996740;28;20556;-67
2022/02/11 12:42:45;;;;;;;11.23;4.93;;;16.10;61.60;;;;;;5010972;28;20210;-67
2022/02/11 12:45:28;;;;;;;15.57;5.20;;;16.00;61.10;;;;;;4998816;28;20206;-67
2022/02/11 12:47:55;;;;;;;18.37;5.53;;;16.00;60.70;;;;;;4998672;28;20643;-67
2022/02/11 12:50:37;;;;;;;13.17;5.80;;;16.00;60.80;;;;;;5005810;28;20210;-68
2022/02/11 12:53:10;;;;;;;13.73;4.70;;;16.00;60.90;;;;;;5010119;28;20208;-67
2022/02/11 12:55:39;;;;;;;10.87;6.10;;;16.00;60.80;;;;;;5004285;28;20212;-67
2022/02/11 12:58:10;;;;;;;16.17;5.73;;;16.00;61.20;;;;;;5008288;28;20551;-67
2022/02/11 13:00:40;;;;;;;11.97;5.77;;;16.00;60.40;;;;;;4999479;28;20203;-67
2022/02/11 13:03:13;;;;;;;15.10;6.60;;;15.90;60.90;;;;;;4999991;28;20213;-67
2022/02/11 13:05:46;;;;;;;15.80;6.03;;;15.90;61.20;;;;;;5010626;28;20230;-67
2022/02/11 13:08:28;;;;;;;13.80;5.70;;;15.90;61.50;;;;;;5007289;28;20204;-67
2022/02/11 13:10:59;;;;;;;13.80;6.63;;;15.90;62.30;;;;;;5005228;28;20601;-70
2022/02/11 13:13:26;;;;;;;14.17;6.90;;;15.90;60.90;;;;;;5012840;28;20538;-70
2022/02/11 13:15:55;;;;;;;12.37;6.23;;;15.90;60.80;;;;;;5007141;28;20559;-70
2022/02/11 13:18:24;;;;;;;13.47;6.67;;;15.80;61.10;;;;;;5002154;28;20625;-70
2022/02/11 13:20:54;;;;;;;14.47;6.13;;;15.70;61.40;;;;;;4999417;28;20659;-71
2022/02/11 13:23:23;;;;;;;13.53;6.00;;;15.70;61.30;;;;;;5006796;28;20234;-71
2022/02/11 13:25:52;;;;;;;15.97;6.70;;;15.60;61.70;;;;;;4999069;28;20221;-70
2022/02/11 13:28:20;;;;;;;15.20;7.17;;;15.60;62.20;;;;;;5015173;28;20271;-68
2022/02/11 13:30:56;;;;;;;13.93;6.27;;;15.60;61.40;;;;;;5007907;28;20691;-68
2022/02/11 13:33:29;;;;;;;14.47;6.03;;;15.50;62.10;;;;;;5007117;28;20221;-68
2022/02/11 13:35:59;;;;;;;12.87;5.80;;;15.50;61.50;;;;;;5003022;28;20272;-70
2022/02/11 13:38:32;;;;;;;12.20;7.43;;;15.40;62.20;;;;;;5008852;28;20216;-70
2022/02/11 13:41:06;;;;;;;16.67;8.90;;;15.40;62.20;;;;;;5013934;28;20219;-68
2022/02/11 13:44:07;;;;;;;17.80;9.30;;;15.30;62.70;;;;;;5000466;28;20214;-68
2022/02/11 13:46:55;;;;;;;16.10;8.87;;;15.20;62.90;;;;;;5004308;28;20227;-69
2022/02/11 13:49:23;;;;;;;18.10;9.07;;;15.10;63.40;;;;;;5005802;28;20209;-70
2022/02/11 13:55:07;;;;;;;19.27;9.47;;;15.00;63.70;;;;;;5001801;28;20200;-70
2022/02/11 13:57:36;;;;;;;16.57;8.00;;;15.00;63.90;;;;;;5012360;28;20591;-70
2022/02/11 14:00:36;;;;;;;17.67;9.63;;;14.90;64.50;;;;;;5005842;28;20572;-70
2022/02/11 14:03:04;;;;;;;16.67;9.20;;;14.90;64.90;;;;;;5012110;28;20281;-70
2022/02/11 14:05:46;;;;;;;16.50;9.17;;;14.90;65.20;;;;;;5006734;28;20210;-67
2022/02/11 14:08:14;;;;;;;15.63;9.37;;;14.80;65.90;;;;;;5004456;28;20646;-67
2022/02/11 14:10:43;;;;;;;15.50;7.97;;;14.80;66.10;;;;;;5005712;28;20286;-67
2022/02/11 14:13:10;;;;;;;18.60;9.03;;;14.80;65.40;;;;;;5003449;28;20266;-67
2022/02/11 14:15:41;;;;;;;14.00;8.97;;;14.80;65.20;;;;;;5006196;28;20211;-67
2022/02/11 14:18:08;;;;;;;16.83;7.43;;;14.80;65.50;;;;;;5002407;28;20235;-70
2022/02/11 14:20:37;;;;;;;17.57;8.33;;;14.70;65.50;;;;;;4998629;28;20653;-70
2022/02/11 14:23:15;;;;;;;13.10;8.20;;;14.70;65.10;;;;;;5013552;28;20231;-71
2022/02/11 14:25:43;;;;;;;17.23;9.33;;;14.70;65.20;;;;;;5006263;28;20202;-70
2022/02/11 14:28:11;;;;;;;17.07;8.63;;;14.70;65.60;;;;;;5001425;28;20221;-70
2022/02/11 14:30:40;;;;;;;16.63;9.00;;;14.60;65.70;;;;;;5008366;28;20202;-70
2022/02/11 14:33:09;;;;;;;17.83;9.20;;;14.60;65.70;;;;;;5002844;28;20202;-67
2022/02/11 14:35:36;;;;;;;17.27;8.47;;;14.60;65.80;;;;;;5010415;28;20319;-67
2022/02/11 14:38:04;;;;;;;14.73;8.57;;;14.60;65.30;;;;;;5012037;28;20227;-67
2022/02/11 14:40:32;;;;;;;11.53;8.70;;;14.60;65.20;;;;;;5014074;28;20215;-67
2022/02/11 14:43:04;;;;;;;18.57;10.17;;;14.50;65.30;;;;;;5014309;28;20661;-67
2022/02/11 14:45:32;;;;;;;18.80;10.57;;;14.60;65.60;;;;;;5006995;28;20238;-67
2022/02/11 14:47:59;;;;;;;15.53;10.70;;;14.50;65.70;;;;;;5006699;28;20298;-67
2022/02/11 14:50:28;;;;;;;22.97;10.87;;;14.50;65.80;;;;;;5005199;28;20229;-67
2022/02/11 14:52:55;;;;;;;23.73;11.33;;;14.40;66.00;;;;;;5014747;28;20222;-67
2022/02/11 14:55:23;;;;;;;21.40;11.47;;;14.40;66.20;;;;;;4997696;28;20268;-69
2022/02/11 14:57:52;;;;;;;26.57;11.90;;;14.30;66.40;;;;;;5001732;28;20202;-67
2022/02/11 15:00:20;;;;;;;25.17;12.53;;;14.30;66.90;;;;;;5009672;28;20210;-68
2022/02/11 15:02:47;;;;;;;17.60;12.27;;;14.30;67.20;;;;;;5008824;28;20206;-67
2022/02/11 15:05:14;;;;;;;19.53;11.60;;;14.20;67.00;;;;;;5012898;28;20229;-67
2022/02/11 15:07:44;;;;;;;19.93;13.03;;;14.20;67.50;;;;;;5007444;28;20246;-67
2022/02/11 15:10:11;;;;;;;23.17;12.43;;;14.20;67.60;;;;;;5009609;28;20209;-67
2022/02/11 15:12:39;;;;;;;22.00;12.30;;;14.20;68.50;;;;;;5006066;28;20265;-68
2022/02/11 15:15:07;;;;;;;20.77;12.13;;;14.10;68.10;;;;;;5008882;28;20638;-69
2022/02/11 15:17:34;;;;;;;21.77;12.60;;;14.10;68.20;;;;;;5006128;28;20210;-67
2022/02/11 15:20:02;;;;;;;23.63;13.80;;;14.10;68.40;;;;;;5007372;28;20213;-67
2022/02/11 15:22:30;;;;;;;31.60;14.20;;;14.00;68.70;;;;;;5007204;28;20238;-70
2022/02/11 15:25:00;;;;;;;25.83;14.57;;;14.00;69.10;;;;;;5014215;28;20206;-71
2022/02/11 15:27:27;;;;;;;27.33;13.90;;;13.90;69.30;;;;;;5012614;28;20303;-71
2022/02/11 15:29:54;;;;;;;22.53;14.23;;;13.90;69.50;;;;;;5010807;28;20217;-68
2022/02/11 15:32:21;;;;;;;27.67;15.27;;;13.90;69.80;;;;;;5009090;28;20218;-68
2022/02/11 15:34:49;;;;;;;23.97;14.47;;;13.80;70.10;;;;;;5007314;28;20275;-68
2022/02/11 15:37:17;;;;;;;23.07;15.27;;;13.80;70.40;;;;;;5011752;28;20261;-72
2022/02/11 15:39:44;;;;;;;21.70;14.37;;;13.80;70.60;;;;;;4997991;28;20211;-70
2022/02/11 15:42:12;;;;;;;29.87;15.23;;;13.80;70.60;;;;;;5012829;28;20543;-70
2022/02/11 15:44:39;;;;;;;31.90;15.17;;;13.80;70.70;;;;;;4992896;28;20558;-70
2022/02/11 15:47:06;;;;;;;27.00;16.47;;;13.80;70.90;;;;;;5009374;28;20221;-70
2022/02/11 15:49:33;;;;;;;22.97;15.03;;;13.80;71.00;;;;;;5003419;28;20707;-68
2022/02/11 15:52:00;;;;;;;30.03;18.10;;;13.70;71.20;;;;;;5006024;28;20205;-68
2022/02/11 15:54:30;;;;;;;28.40;17.97;;;13.70;71.40;;;;;;4989314;28;20569;-70
2022/02/11 15:56:57;;;;;;;25.90;17.67;;;13.70;71.50;;;;;;5012442;28;20204;-71
2022/02/11 15:59:24;;;;;;;30.40;17.67;;;13.70;71.60;;;;;;5008954;28;20227;-70
2022/02/11 16:01:51;;;;;;;38.40;19.60;;;13.60;71.70;;;;;;5002501;28;20210;-68
2022/02/11 16:04:19;;;;;;;34.10;18.57;;;13.60;71.70;;;;;;5001778;28;20218;-70
2022/02/11 16:06:46;;;;;;;31.23;17.97;;;13.60;71.70;;;;;;5011409;28;20226;-70
2022/02/11 16:09:13;;;;;;;32.67;18.27;;;13.60;71.90;;;;;;5004585;28;20198;-72
2022/02/11 16:11:40;;;;;;;38.93;20.03;;;13.60;72.00;;;;;;5012492;28;20253;-71
2022/02/11 16:14:09;;;;;;;33.33;20.17;;;13.60;72.10;;;;;;5012134;28;20220;-71
2022/02/11 16:16:37;;;;;;;45.03;20.57;;;13.70;71.90;;;;;;5003017;28;20704;-68
2022/02/11 16:19:04;;;;;;;32.20;19.30;;;13.60;71.90;;;;;;5013520;28;20208;-70
2022/02/11 16:21:31;;;;;;;37.20;20.23;;;13.60;72.00;;;;;;5005290;28;20544;-70
2022/02/11 16:23:58;;;;;;;37.40;20.67;;;13.50;72.10;;;;;;5013924;28;20208;-68
2022/02/11 16:26:27;;;;;;;34.17;20.37;;;13.50;72.40;;;;;;5000641;28;20290;-68
2022/02/11 16:28:54;;;;;;;32.83;19.47;;;13.50;72.70;;;;;;5004618;28;20645;-68
2022/02/11 16:31:27;;;;;;;36.63;19.70;;;13.40;72.90;;;;;;5014418;28;20232;-68
2022/02/11 16:33:56;;;;;;;31.37;19.17;;;13.40;73.10;;;;;;4990826;28;20222;-68
2022/02/11 16:36:27;;;;;;;37.13;20.20;;;13.30;73.20;;;;;;5015788;28;20238;-67
2022/02/11 16:38:54;;;;;;;42.37;21.53;;;13.30;73.50;;;;;;5002400;28;20207;-71
2022/02/11 16:41:23;;;;;;;32.90;19.97;;;13.20;73.60;;;;;;5003759;28;20199;-68